sensor_id;sensor_type;location;lat;lon;timestamp;temperature;humidity
2010;DHT22;1008;47.404;8.502;2023-07-09T00:01:41;24.30;99.90
2010;DHT22;1008;47.404;8.502;2023-07-09T00:04:10;24.40;99.90
2010;DHT22;1008;47.404;8.502;2023-07-09T00:06:37;24.40;99.90
2010;DHT22;1008;47.404;8.502;2023-07-09T00:09:05;24.30;99.90
2010;DHT22;1008;47.404;8.502;2023-07-09T00:11:32;24.30;99.90
2010;DHT22;1008;47.404;8.502;2023-07-09T00:13:58;24.20;99.90
2010;DHT22;1008;47.404;8.502;2023-07-09T00:16:26;24.00;99.90
2010;DHT22;1008;47.404;8.502;2023-07-09T00:18:52;24.20;99.90
2010;DHT22;1008;47.404;8.502;2023-07-09T00:21:22;24.00;99.90
2010;DHT22;1008;47.404;8.502;2023-07-09T00:23:49;23.90;99.90
2010;DHT22;1008;47.404;8.502;2023-07-09T00:26:16;24.00;99.90
2010;DHT22;1008;47.404;8.502;2023-07-09T00:28:46;23.90;99.90
2010;DHT22;1008;47.404;8.502;2023-07-09T00:31:15;24.10;99.90
2010;DHT22;1008;47.404;8.502;2023-07-09T00:33:42;24.20;99.90
2010;DHT22;1008;47.404;8.502;2023-07-09T00:36:14;24.30;99.90
2010;DHT22;1008;47.404;8.502;2023-07-09T00:38:42;24.20;99.90
2010;DHT22;1008;47.404;8.502;2023-07-09T00:41:16;24.10;99.90
2010;DHT22;1008;47.404;8.502;2023-07-09T00:43:45;24.00;99.90
2010;DHT22;1008;47.404;8.502;2023-07-09T00:47:09;24.00;99.90
2010;DHT22;1008;47.404;8.502;2023-07-09T00:49:05;23.90;99.90
2010;DHT22;1008;47.404;8.502;2023-07-09T00:51:38;23.70;99.90
2010;DHT22;1008;47.404;8.502;2023-07-09T00:54:12;23.60;99.90
2010;DHT22;1008;47.404;8.502;2023-07-09T00:56:43;23.70;99.90
2010;DHT22;1008;47.404;8.502;2023-07-09T00:59:14;23.40;99.90
2010;DHT22;1008;47.404;8.502;2023-07-09T01:01:42;23.40;1.00
2010;DHT22;1008;47.404;8.502;2023-07-09T01:04:12;23.30;1.00
2010;DHT22;1008;47.404;8.502;2023-07-09T01:06:45;23.30;1.00
2010;DHT22;1008;47.404;8.502;2023-07-09T01:09:15;23.30;1.00
2010;DHT22;1008;47.404;8.502;2023-07-09T01:11:43;23.20;1.00
2010;DHT22;1008;47.404;8.502;2023-07-09T01:14:14;23.30;1.00
2010;DHT22;1008;47.404;8.502;2023-07-09T01:16:47;23.30;1.00
2010;DHT22;1008;47.404;8.502;2023-07-09T01:19:15;23.30;1.00
2010;DHT22;1008;47.404;8.502;2023-07-09T01:21:43;23.50;1.00
2010;DHT22;1008;47.404;8.502;2023-07-09T01:24:13;23.60;1.00
2010;DHT22;1008;47.404;8.502;2023-07-09T01:26:41;23.60;1.00
2010;DHT22;1008;47.404;8.502;2023-07-09T01:29:09;23.70;1.00
2010;DHT22;1008;47.404;8.502;2023-07-09T01:31:36;23.70;1.00
2010;DHT22;1008;47.404;8.502;2023-07-09T01:34:02;23.80;1.00
2010;DHT22;1008;47.404;8.502;2023-07-09T01:36:30;23.80;1.00
2010;DHT22;1008;47.404;8.502;2023-07-09T01:38:58;23.80;1.00
2010;DHT22;1008;47.404;8.502;2023-07-09T01:41:25;23.70;1.00
2010;DHT22;1008;47.404;8.502;2023-07-09T01:43:51;23.70;1.00
2010;DHT22;1008;47.404;8.502;2023-07-09T01:46:18;23.40;1.00
2010;DHT22;1008;47.404;8.502;2023-07-09T01:48:47;23.30;1.00
2010;DHT22;1008;47.404;8.502;2023-07-09T01:51:16;23.40;1.00
2010;DHT22;1008;47.404;8.502;2023-07-09T01:53:43;23.40;1.00
2010;DHT22;1008;47.404;8.502;2023-07-09T01:56:12;23.20;1.00
2010;DHT22;1008;47.404;8.502;2023-07-09T01:58:38;23.10;1.00
2010;DHT22;1008;47.404;8.502;2023-07-09T02:01:07;23.00;1.00
2010;DHT22;1008;47.404;8.502;2023-07-09T02:03:34;23.10;1.00
2010;DHT22;1008;47.404;8.502;2023-07-09T02:06:01;23.00;1.00
2010;DHT22;1008;47.404;8.502;2023-07-09T02:08:34;22.90;1.00
2010;DHT22;1008;47.404;8.502;2023-07-09T02:11:01;22.80;1.00
2010;DHT22;1008;47.404;8.502;2023-07-09T02:13:29;22.70;1.00
2010;DHT22;1008;47.404;8.502;2023-07-09T02:15:56;22.70;1.00
2010;DHT22;1008;47.404;8.502;2023-07-09T02:18:23;22.80;1.00
2010;DHT22;1008;47.404;8.502;2023-07-09T02:20:49;22.90;1.00
2010;DHT22;1008;47.404;8.502;2023-07-09T02:23:16;23.00;1.00
2010;DHT22;1008;47.404;8.502;2023-07-09T02:25:43;22.90;1.00
2010;DHT22;1008;47.404;8.502;2023-07-09T02:28:09;22.90;1.00
2010;DHT22;1008;47.404;8.502;2023-07-09T02:30:37;23.00;1.00
2010;DHT22;1008;47.404;8.502;2023-07-09T02:33:04;23.10;1.00
2010;DHT22;1008;47.404;8.502;2023-07-09T02:35:31;23.10;1.00
2010;DHT22;1008;47.404;8.502;2023-07-09T02:37:57;23.10;1.00
2010;DHT22;1008;47.404;8.502;2023-07-09T02:40:24;23.20;1.00
2010;DHT22;1008;47.404;8.502;2023-07-09T02:42:51;23.10;1.00
2010;DHT22;1008;47.404;8.502;2023-07-09T02:45:17;23.20;1.00
2010;DHT22;1008;47.404;8.502;2023-07-09T02:47:45;23.10;1.00
2010;DHT22;1008;47.404;8.502;2023-07-09T02:50:12;23.20;1.00
2010;DHT22;1008;47.404;8.502;2023-07-09T02:52:39;23.00;1.00
2010;DHT22;1008;47.404;8.502;2023-07-09T02:55:08;23.10;1.00
2010;DHT22;1008;47.404;8.502;2023-07-09T02:57:34;23.10;1.00
2010;DHT22;1008;47.404;8.502;2023-07-09T03:00:01;23.10;1.00
2010;DHT22;1008;47.404;8.502;2023-07-09T03:02:30;22.90;1.00
2010;DHT22;1008;47.404;8.502;2023-07-09T03:04:58;22.80;1.00
2010;DHT22;1008;47.404;8.502;2023-07-09T03:07:26;22.70;1.00
2010;DHT22;1008;47.404;8.502;2023-07-09T03:09:52;22.60;1.00
2010;DHT22;1008;47.404;8.502;2023-07-09T03:12:19;22.60;1.00
2010;DHT22;1008;47.404;8.502;2023-07-09T03:14:48;22.60;1.00
2010;DHT22;1008;47.404;8.502;2023-07-09T03:17:14;22.60;1.00
2010;DHT22;1008;47.404;8.502;2023-07-09T03:19:43;22.60;1.00
2010;DHT22;1008;47.404;8.502;2023-07-09T03:22:11;22.70;1.00
2010;DHT22;1008;47.404;8.502;2023-07-09T03:24:38;22.70;1.00
2010;DHT22;1008;47.404;8.502;2023-07-09T03:27:06;22.60;1.00
2010;DHT22;1008;47.404;8.502;2023-07-09T03:29:33;22.60;1.00
2010;DHT22;1008;47.404;8.502;2023-07-09T03:31:59;22.50;1.00
2010;DHT22;1008;47.404;8.502;2023-07-09T03:34:26;22.20;1.00
2010;DHT22;1008;47.404;8.502;2023-07-09T03:36:53;22.20;1.00
2010;DHT22;1008;47.404;8.502;2023-07-09T03:39:22;22.10;1.00
2010;DHT22;1008;47.404;8.502;2023-07-09T03:41:48;22.10;1.00
2010;DHT22;1008;47.404;8.502;2023-07-09T03:44:15;22.00;1.00
2010;DHT22;1008;47.404;8.502;2023-07-09T03:46:42;21.90;1.00
2010;DHT22;1008;47.404;8.502;2023-07-09T03:49:08;21.80;1.00
2010;DHT22;1008;47.404;8.502;2023-07-09T03:51:35;21.70;1.00
2010;DHT22;1008;47.404;8.502;2023-07-09T03:54:02;21.70;8.70
2010;DHT22;1008;47.404;8.502;2023-07-09T03:56:30;21.80;1.00
2010;DHT22;1008;47.404;8.502;2023-07-09T03:58:57;21.80;1.00
2010;DHT22;1008;47.404;8.502;2023-07-09T04:01:23;21.80;1.00
2010;DHT22;1008;47.404;8.502;2023-07-09T04:03:50;21.80;1.00
2010;DHT22;1008;47.404;8.502;2023-07-09T04:06:17;21.90;1.00
2010;DHT22;1008;47.404;8.502;2023-07-09T04:08:43;22.00;1.00
2010;DHT22;1008;47.404;8.502;2023-07-09T04:11:10;22.10;1.00
2010;DHT22;1008;47.404;8.502;2023-07-09T04:13:38;22.20;1.00
2010;DHT22;1008;47.404;8.502;2023-07-09T04:16:05;22.30;1.00
2010;DHT22;1008;47.404;8.502;2023-07-09T04:18:32;22.30;1.00
2010;DHT22;1008;47.404;8.502;2023-07-09T04:20:58;22.40;1.00
2010;DHT22;1008;47.404;8.502;2023-07-09T04:23:25;22.40;1.00
2010;DHT22;1008;47.404;8.502;2023-07-09T04:25:52;22.50;1.00
2010;DHT22;1008;47.404;8.502;2023-07-09T04:28:18;22.60;1.00
2010;DHT22;1008;47.404;8.502;2023-07-09T04:30:48;22.60;1.00
2010;DHT22;1008;47.404;8.502;2023-07-09T04:33:18;22.60;1.00
2010;DHT22;1008;47.404;8.502;2023-07-09T04:35:46;22.70;1.00
2010;DHT22;1008;47.404;8.502;2023-07-09T04:38:13;22.70;1.00
2010;DHT22;1008;47.404;8.502;2023-07-09T04:40:40;22.60;1.00
2010;DHT22;1008;47.404;8.502;2023-07-09T04:43:06;22.60;1.00
2010;DHT22;1008;47.404;8.502;2023-07-09T04:45:33;22.60;1.00
2010;DHT22;1008;47.404;8.502;2023-07-09T04:48:02;22.60;1.00
2010;DHT22;1008;47.404;8.502;2023-07-09T04:50:29;22.60;1.00
2010;DHT22;1008;47.404;8.502;2023-07-09T04:52:55;22.50;1.00
2010;DHT22;1008;47.404;8.502;2023-07-09T04:55:22;22.60;1.00
2010;DHT22;1008;47.404;8.502;2023-07-09T04:57:49;22.60;1.00
2010;DHT22;1008;47.404;8.502;2023-07-09T05:00:16;22.60;1.00
2010;DHT22;1008;47.404;8.502;2023-07-09T05:02:42;22.70;1.00
2010;DHT22;1008;47.404;8.502;2023-07-09T05:05:10;22.80;1.00
2010;DHT22;1008;47.404;8.502;2023-07-09T05:07:37;22.80;1.00
2010;DHT22;1008;47.404;8.502;2023-07-09T05:10:05;22.90;1.00
2010;DHT22;1008;47.404;8.502;2023-07-09T05:12:31;22.80;1.00
2010;DHT22;1008;47.404;8.502;2023-07-09T05:14:58;22.80;1.00
2010;DHT22;1008;47.404;8.502;2023-07-09T05:17:25;22.70;1.00
2010;DHT22;1008;47.404;8.502;2023-07-09T05:19:51;22.70;1.00
2010;DHT22;1008;47.404;8.502;2023-07-09T05:22:19;22.70;1.00
2010;DHT22;1008;47.404;8.502;2023-07-09T05:24:46;22.80;1.00
2010;DHT22;1008;47.404;8.502;2023-07-09T05:27:13;23.00;1.00
2010;DHT22;1008;47.404;8.502;2023-07-09T05:29:39;23.00;1.00
2010;DHT22;1008;47.404;8.502;2023-07-09T05:32:06;22.80;1.00
2010;DHT22;1008;47.404;8.502;2023-07-09T05:34:33;22.70;1.00
2010;DHT22;1008;47.404;8.502;2023-07-09T05:37:00;22.70;1.00
2010;DHT22;1008;47.404;8.502;2023-07-09T05:39:28;22.70;1.00
2010;DHT22;1008;47.404;8.502;2023-07-09T05:41:54;22.70;1.00
2010;DHT22;1008;47.404;8.502;2023-07-09T05:44:21;22.50;1.00
2010;DHT22;1008;47.404;8.502;2023-07-09T05:46:48;22.40;1.00
2010;DHT22;1008;47.404;8.502;2023-07-09T05:49:14;22.70;1.00
2010;DHT22;1008;47.404;8.502;2023-07-09T05:51:41;22.90;1.00
2010;DHT22;1008;47.404;8.502;2023-07-09T05:54:08;23.00;1.00
2010;DHT22;1008;47.404;8.502;2023-07-09T05:56:36;22.90;1.00
2010;DHT22;1008;47.404;8.502;2023-07-09T05:59:03;23.00;1.00
2010;DHT22;1008;47.404;8.502;2023-07-09T06:01:29;22.80;1.00
2010;DHT22;1008;47.404;8.502;2023-07-09T06:03:56;23.10;1.00
2010;DHT22;1008;47.404;8.502;2023-07-09T06:06:23;23.20;1.00
2010;DHT22;1008;47.404;8.502;2023-07-09T06:08:49;23.40;1.00
2010;DHT22;1008;47.404;8.502;2023-07-09T06:11:16;23.60;1.00
2010;DHT22;1008;47.404;8.502;2023-07-09T06:13:46;23.60;1.00
2010;DHT22;1008;47.404;8.502;2023-07-09T06:16:13;24.00;1.00
2010;DHT22;1008;47.404;8.502;2023-07-09T06:18:40;24.00;1.00
2010;DHT22;1008;47.404;8.502;2023-07-09T06:21:06;24.20;1.00
2010;DHT22;1008;47.404;8.502;2023-07-09T06:23:35;24.20;1.00
2010;DHT22;1008;47.404;8.502;2023-07-09T06:26:02;24.40;1.00
2010;DHT22;1008;47.404;8.502;2023-07-09T06:28:29;24.50;1.00
2010;DHT22;1008;47.404;8.502;2023-07-09T06:30:57;24.70;1.00
2010;DHT22;1008;47.404;8.502;2023-07-09T06:33:25;24.90;1.00
2010;DHT22;1008;47.404;8.502;2023-07-09T06:35:54;25.00;1.00
2010;DHT22;1008;47.404;8.502;2023-07-09T06:38:21;25.10;1.00
2010;DHT22;1008;47.404;8.502;2023-07-09T06:40:48;25.00;1.00
2010;DHT22;1008;47.404;8.502;2023-07-09T06:43:15;24.80;1.00
2010;DHT22;1008;47.404;8.502;2023-07-09T06:45:49;25.10;1.00
2010;DHT22;1008;47.404;8.502;2023-07-09T06:48:17;25.00;1.00
2010;DHT22;1008;47.404;8.502;2023-07-09T06:50:44;25.20;1.00
2010;DHT22;1008;47.404;8.502;2023-07-09T06:53:11;25.20;1.00
2010;DHT22;1008;47.404;8.502;2023-07-09T06:55:38;25.40;1.00
2010;DHT22;1008;47.404;8.502;2023-07-09T06:58:04;25.40;1.00
2010;DHT22;1008;47.404;8.502;2023-07-09T07:00:33;25.20;1.00
2010;DHT22;1008;47.404;8.502;2023-07-09T07:02:59;25.40;99.90
2010;DHT22;1008;47.404;8.502;2023-07-09T07:05:27;25.80;99.90
2010;DHT22;1008;47.404;8.502;2023-07-09T07:07:54;25.70;99.90
2010;DHT22;1008;47.404;8.502;2023-07-09T07:10:21;25.70;99.90
2010;DHT22;1008;47.404;8.502;2023-07-09T07:12:48;25.90;99.90
2010;DHT22;1008;47.404;8.502;2023-07-09T07:15:16;26.10;99.90
2010;DHT22;1008;47.404;8.502;2023-07-09T07:17:43;26.30;99.90
2010;DHT22;1008;47.404;8.502;2023-07-09T07:20:12;26.40;99.90
2010;DHT22;1008;47.404;8.502;2023-07-09T07:22:40;26.20;99.90
2010;DHT22;1008;47.404;8.502;2023-07-09T07:25:08;26.30;99.90
2010;DHT22;1008;47.404;8.502;2023-07-09T07:27:35;26.50;99.90
2010;DHT22;1008;47.404;8.502;2023-07-09T07:30:03;26.70;99.90
2010;DHT22;1008;47.404;8.502;2023-07-09T07:32:29;26.90;99.90
2010;DHT22;1008;47.404;8.502;2023-07-09T07:34:56;27.20;99.90
2010;DHT22;1008;47.404;8.502;2023-07-09T07:37:23;27.50;99.90
2010;DHT22;1008;47.404;8.502;2023-07-09T07:39:51;27.70;99.90
2010;DHT22;1008;47.404;8.502;2023-07-09T07:42:17;27.50;99.90
2010;DHT22;1008;47.404;8.502;2023-07-09T07:44:45;27.60;99.90
2010;DHT22;1008;47.404;8.502;2023-07-09T07:47:11;27.60;99.90
2010;DHT22;1008;47.404;8.502;2023-07-09T07:49:39;27.40;99.90
2010;DHT22;1008;47.404;8.502;2023-07-09T07:52:06;27.40;99.90
2010;DHT22;1008;47.404;8.502;2023-07-09T07:54:33;27.60;99.90
2010;DHT22;1008;47.404;8.502;2023-07-09T07:57:02;27.80;99.90
2010;DHT22;1008;47.404;8.502;2023-07-09T07:59:29;27.90;99.90
2010;DHT22;1008;47.404;8.502;2023-07-09T08:01:58;28.10;99.90
2010;DHT22;1008;47.404;8.502;2023-07-09T08:04:24;28.00;99.90
2010;DHT22;1008;47.404;8.502;2023-07-09T08:06:51;28.10;99.90
2010;DHT22;1008;47.404;8.502;2023-07-09T08:09:18;28.20;99.90
2010;DHT22;1008;47.404;8.502;2023-07-09T08:11:45;28.10;99.90
2010;DHT22;1008;47.404;8.502;2023-07-09T08:14:13;28.10;99.90
2010;DHT22;1008;47.404;8.502;2023-07-09T08:16:40;27.90;99.90
2010;DHT22;1008;47.404;8.502;2023-07-09T08:19:06;28.10;99.90
2010;DHT22;1008;47.404;8.502;2023-07-09T08:21:33;28.30;99.90
2010;DHT22;1008;47.404;8.502;2023-07-09T08:24:00;28.70;99.90
2010;DHT22;1008;47.404;8.502;2023-07-09T08:26:27;29.00;99.90
2010;DHT22;1008;47.404;8.502;2023-07-09T08:28:54;29.30;99.90
2010;DHT22;1008;47.404;8.502;2023-07-09T08:31:22;29.40;99.90
2010;DHT22;1008;47.404;8.502;2023-07-09T08:33:49;29.10;99.90
2010;DHT22;1008;47.404;8.502;2023-07-09T08:36:15;29.50;99.90
2010;DHT22;1008;47.404;8.502;2023-07-09T08:38:42;29.60;99.90
2010;DHT22;1008;47.404;8.502;2023-07-09T08:41:21;29.90;99.90
2010;DHT22;1008;47.404;8.502;2023-07-09T08:43:58;30.00;99.90
2010;DHT22;1008;47.404;8.502;2023-07-09T08:46:37;30.00;99.90
2010;DHT22;1008;47.404;8.502;2023-07-09T08:49:14;30.30;99.90
2010;DHT22;1008;47.404;8.502;2023-07-09T08:51:43;30.00;99.90
2010;DHT22;1008;47.404;8.502;2023-07-09T08:54:14;30.00;99.90
2010;DHT22;1008;47.404;8.502;2023-07-09T08:56:42;30.10;99.90
2010;DHT22;1008;47.404;8.502;2023-07-09T08:59:12;30.40;99.90
2010;DHT22;1008;47.404;8.502;2023-07-09T09:01:46;30.60;99.90
2010;DHT22;1008;47.404;8.502;2023-07-09T09:04:18;30.60;99.90
2010;DHT22;1008;47.404;8.502;2023-07-09T09:06:50;30.60;99.90
2010;DHT22;1008;47.404;8.502;2023-07-09T09:09:24;30.70;99.90
2010;DHT22;1008;47.404;8.502;2023-07-09T09:11:59;30.70;99.90
2010;DHT22;1008;47.404;8.502;2023-07-09T09:14:29;31.10;99.90
2010;DHT22;1008;47.404;8.502;2023-07-09T09:16:58;31.40;99.90
2010;DHT22;1008;47.404;8.502;2023-07-09T09:19:29;31.50;99.90
2010;DHT22;1008;47.404;8.502;2023-07-09T09:22:01;31.70;99.90
2010;DHT22;1008;47.404;8.502;2023-07-09T09:24:34;31.50;99.90
2010;DHT22;1008;47.404;8.502;2023-07-09T09:27:02;31.50;99.90
2010;DHT22;1008;47.404;8.502;2023-07-09T09:29:28;31.70;99.90
2010;DHT22;1008;47.404;8.502;2023-07-09T09:31:58;31.90;99.90
2010;DHT22;1008;47.404;8.502;2023-07-09T09:34:29;32.10;99.90
2010;DHT22;1008;47.404;8.502;2023-07-09T09:36:58;32.20;99.90
2010;DHT22;1008;47.404;8.502;2023-07-09T09:39:25;32.30;99.90
2010;DHT22;1008;47.404;8.502;2023-07-09T09:41:54;32.40;99.90
2010;DHT22;1008;47.404;8.502;2023-07-09T09:44:25;32.50;99.90
2010;DHT22;1008;47.404;8.502;2023-07-09T09:46:52;32.70;99.90
2010;DHT22;1008;47.404;8.502;2023-07-09T09:49:20;32.80;99.90
2010;DHT22;1008;47.404;8.502;2023-07-09T09:51:47;32.50;99.90
2010;DHT22;1008;47.404;8.502;2023-07-09T09:54:18;32.40;99.90
2010;DHT22;1008;47.404;8.502;2023-07-09T09:56:48;32.50;99.90
2010;DHT22;1008;47.404;8.502;2023-07-09T09:59:18;32.60;99.90
2010;DHT22;1008;47.404;8.502;2023-07-09T10:01:46;32.70;99.90
2010;DHT22;1008;47.404;8.502;2023-07-09T10:04:18;32.90;99.90
2010;DHT22;1008;47.404;8.502;2023-07-09T10:06:50;33.10;99.90
2010;DHT22;1008;47.404;8.502;2023-07-09T10:09:27;33.40;99.90
2010;DHT22;1008;47.404;8.502;2023-07-09T10:11:58;33.10;99.90
2010;DHT22;1008;47.404;8.502;2023-07-09T10:14:34;33.40;99.90
2010;DHT22;1008;47.404;8.502;2023-07-09T10:17:10;32.90;99.90
2010;DHT22;1008;47.404;8.502;2023-07-09T10:19:47;33.40;99.90
2010;DHT22;1008;47.404;8.502;2023-07-09T10:22:24;33.50;99.90
2010;DHT22;1008;47.404;8.502;2023-07-09T10:24:59;33.40;99.90
2010;DHT22;1008;47.404;8.502;2023-07-09T10:27:34;33.70;99.90
2010;DHT22;1008;47.404;8.502;2023-07-09T10:30:28;34.00;99.90
2010;DHT22;1008;47.404;8.502;2023-07-09T10:33:07;34.30;99.90
2010;DHT22;1008;47.404;8.502;2023-07-09T10:35:38;34.30;99.90
2010;DHT22;1008;47.404;8.502;2023-07-09T10:38:20;34.00;99.90
2010;DHT22;1008;47.404;8.502;2023-07-09T10:40:51;33.90;99.90
2010;DHT22;1008;47.404;8.502;2023-07-09T10:46:04;34.20;99.90
2010;DHT22;1008;47.404;8.502;2023-07-09T10:48:37;34.20;99.90
2010;DHT22;1008;47.404;8.502;2023-07-09T10:51:13;34.30;99.90
2010;DHT22;1008;47.404;8.502;2023-07-09T10:53:46;34.30;99.90
2010;DHT22;1008;47.404;8.502;2023-07-09T10:56:16;34.40;99.90
2010;DHT22;1008;47.404;8.502;2023-07-09T10:58:49;34.50;99.90
2010;DHT22;1008;47.404;8.502;2023-07-09T11:01:21;34.50;99.90
2010;DHT22;1008;47.404;8.502;2023-07-09T11:03:56;34.20;99.90
2010;DHT22;1008;47.404;8.502;2023-07-09T11:06:31;34.20;99.90
2010;DHT22;1008;47.404;8.502;2023-07-09T11:09:02;34.40;99.90
2010;DHT22;1008;47.404;8.502;2023-07-09T11:11:33;34.70;99.90
2010;DHT22;1008;47.404;8.502;2023-07-09T11:14:04;34.90;99.90
2010;DHT22;1008;47.404;8.502;2023-07-09T11:16:36;34.80;99.90
2010;DHT22;1008;47.404;8.502;2023-07-09T11:19:05;34.90;99.90
2010;DHT22;1008;47.404;8.502;2023-07-09T11:21:32;35.10;99.90
2010;DHT22;1008;47.404;8.502;2023-07-09T11:24:01;35.30;99.90
2010;DHT22;1008;47.404;8.502;2023-07-09T11:26:30;35.30;99.90
2010;DHT22;1008;47.404;8.502;2023-07-09T11:29:13;35.50;99.90
2010;DHT22;1008;47.404;8.502;2023-07-09T11:31:42;35.20;99.90
2010;DHT22;1008;47.404;8.502;2023-07-09T11:34:16;35.20;99.90
2010;DHT22;1008;47.404;8.502;2023-07-09T11:36:48;35.20;99.90
2010;DHT22;1008;47.404;8.502;2023-07-09T11:39:22;35.10;99.90
2010;DHT22;1008;47.404;8.502;2023-07-09T11:41:49;34.90;99.90
2010;DHT22;1008;47.404;8.502;2023-07-09T11:44:18;35.20;99.90
2010;DHT22;1008;47.404;8.502;2023-07-09T11:47:01;35.30;99.90
2010;DHT22;1008;47.404;8.502;2023-07-09T11:49:46;35.60;99.90
2010;DHT22;1008;47.404;8.502;2023-07-09T11:52:14;35.70;99.90
2010;DHT22;1008;47.404;8.502;2023-07-09T11:54:45;36.10;99.90
2010;DHT22;1008;47.404;8.502;2023-07-09T11:57:12;35.90;99.90
2010;DHT22;1008;47.404;8.502;2023-07-09T11:59:41;35.60;99.90
2010;DHT22;1008;47.404;8.502;2023-07-09T12:02:15;35.70;99.90
2010;DHT22;1008;47.404;8.502;2023-07-09T12:04:43;35.90;99.90
2010;DHT22;1008;47.404;8.502;2023-07-09T12:07:13;35.90;99.90
2010;DHT22;1008;47.404;8.502;2023-07-09T12:09:49;35.80;99.90
2010;DHT22;1008;47.404;8.502;2023-07-09T12:12:20;35.60;99.90
2010;DHT22;1008;47.404;8.502;2023-07-09T12:14:48;35.70;99.90
2010;DHT22;1008;47.404;8.502;2023-07-09T12:17:15;35.90;99.90
2010;DHT22;1008;47.404;8.502;2023-07-09T12:19:42;35.90;99.90
2010;DHT22;1008;47.404;8.502;2023-07-09T12:22:19;36.30;99.90
2010;DHT22;1008;47.404;8.502;2023-07-09T12:24:49;35.70;99.90
2010;DHT22;1008;47.404;8.502;2023-07-09T12:27:22;35.90;99.90
2010;DHT22;1008;47.404;8.502;2023-07-09T12:29:52;36.50;99.90
2010;DHT22;1008;47.404;8.502;2023-07-09T12:32:19;36.90;99.90
2010;DHT22;1008;47.404;8.502;2023-07-09T12:34:50;37.00;99.90
2010;DHT22;1008;47.404;8.502;2023-07-09T12:37:18;36.50;99.90
2010;DHT22;1008;47.404;8.502;2023-07-09T12:39:48;36.20;99.90
2010;DHT22;1008;47.404;8.502;2023-07-09T12:42:19;35.70;99.90
2010;DHT22;1008;47.404;8.502;2023-07-09T12:44:46;35.30;99.90
2010;DHT22;1008;47.404;8.502;2023-07-09T12:47:15;35.10;99.90
2010;DHT22;1008;47.404;8.502;2023-07-09T12:49:44;35.10;99.90
2010;DHT22;1008;47.404;8.502;2023-07-09T12:52:15;35.00;99.90
2010;DHT22;1008;47.404;8.502;2023-07-09T12:54:53;35.00;99.90
2010;DHT22;1008;47.404;8.502;2023-07-09T12:57:21;35.20;99.90
2010;DHT22;1008;47.404;8.502;2023-07-09T12:59:49;35.10;99.90
2010;DHT22;1008;47.404;8.502;2023-07-09T13:02:18;35.50;99.90
2010;DHT22;1008;47.404;8.502;2023-07-09T13:04:45;35.70;99.90
2010;DHT22;1008;47.404;8.502;2023-07-09T13:07:26;35.80;99.90
2010;DHT22;1008;47.404;8.502;2023-07-09T13:09:56;36.10;99.90
2010;DHT22;1008;47.404;8.502;2023-07-09T13:12:29;35.90;99.90
2010;DHT22;1008;47.404;8.502;2023-07-09T13:14:57;35.40;99.90
2010;DHT22;1008;47.404;8.502;2023-07-09T13:17:28;35.60;99.90
2010;DHT22;1008;47.404;8.502;2023-07-09T13:19:55;35.50;99.90
2010;DHT22;1008;47.404;8.502;2023-07-09T13:22:23;35.50;99.90
2010;DHT22;1008;47.404;8.502;2023-07-09T13:24:50;35.70;99.90
2010;DHT22;1008;47.404;8.502;2023-07-09T13:27:18;36.00;99.90
2010;DHT22;1008;47.404;8.502;2023-07-09T13:29:45;36.30;99.90
2010;DHT22;1008;47.404;8.502;2023-07-09T13:32:14;36.40;99.90
2010;DHT22;1008;47.404;8.502;2023-07-09T13:34:41;36.20;99.90
2010;DHT22;1008;47.404;8.502;2023-07-09T13:37:11;36.10;99.90
2010;DHT22;1008;47.404;8.502;2023-07-09T13:39:38;36.20;99.90
2010;DHT22;1008;47.404;8.502;2023-07-09T13:42:10;35.80;99.90
2010;DHT22;1008;47.404;8.502;2023-07-09T13:44:40;36.30;99.90
2010;DHT22;1008;47.404;8.502;2023-07-09T13:47:11;36.80;99.90
2010;DHT22;1008;47.404;8.502;2023-07-09T13:49:40;36.80;99.90
2010;DHT22;1008;47.404;8.502;2023-07-09T13:52:13;36.40;99.90
2010;DHT22;1008;47.404;8.502;2023-07-09T13:54:41;36.30;99.90
2010;DHT22;1008;47.404;8.502;2023-07-09T13:57:13;36.00;99.90
2010;DHT22;1008;47.404;8.502;2023-07-09T13:59:42;35.90;99.90
2010;DHT22;1008;47.404;8.502;2023-07-09T14:02:20;35.90;99.90
2010;DHT22;1008;47.404;8.502;2023-07-09T14:04:48;35.70;99.90
2010;DHT22;1008;47.404;8.502;2023-07-09T14:07:24;35.70;99.90
2010;DHT22;1008;47.404;8.502;2023-07-09T14:09:51;36.10;99.90
2010;DHT22;1008;47.404;8.502;2023-07-09T14:12:18;36.20;99.90
2010;DHT22;1008;47.404;8.502;2023-07-09T14:14:47;36.60;99.90
2010;DHT22;1008;47.404;8.502;2023-07-09T14:17:15;36.60;99.90
2010;DHT22;1008;47.404;8.502;2023-07-09T14:19:42;37.00;99.90
2010;DHT22;1008;47.404;8.502;2023-07-09T14:22:23;37.00;99.90
2010;DHT22;1008;47.404;8.502;2023-07-09T14:24:52;37.00;99.90
2010;DHT22;1008;47.404;8.502;2023-07-09T14:27:18;37.10;99.90
2010;DHT22;1008;47.404;8.502;2023-07-09T14:29:46;37.50;99.90
2010;DHT22;1008;47.404;8.502;2023-07-09T14:32:31;37.40;99.90
2010;DHT22;1008;47.404;8.502;2023-07-09T14:34:59;37.50;99.90
2010;DHT22;1008;47.404;8.502;2023-07-09T14:37:26;37.60;99.90
2010;DHT22;1008;47.404;8.502;2023-07-09T14:39:53;37.50;99.90
2010;DHT22;1008;47.404;8.502;2023-07-09T14:42:20;37.60;99.90
2010;DHT22;1008;47.404;8.502;2023-07-09T14:44:49;37.60;99.90
2010;DHT22;1008;47.404;8.502;2023-07-09T14:47:18;37.50;99.90
2010;DHT22;1008;47.404;8.502;2023-07-09T14:49:46;37.30;99.90
2010;DHT22;1008;47.404;8.502;2023-07-09T14:52:14;37.60;99.90
2010;DHT22;1008;47.404;8.502;2023-07-09T14:54:44;37.60;99.90
2010;DHT22;1008;47.404;8.502;2023-07-09T14:57:18;37.60;99.90
2010;DHT22;1008;47.404;8.502;2023-07-09T14:59:46;37.70;99.90
2010;DHT22;1008;47.404;8.502;2023-07-09T15:02:22;37.90;99.90
2010;DHT22;1008;47.404;8.502;2023-07-09T15:04:50;37.80;99.90
2010;DHT22;1008;47.404;8.502;2023-07-09T15:07:16;37.90;99.90
2010;DHT22;1008;47.404;8.502;2023-07-09T15:09:43;37.70;99.90
2010;DHT22;1008;47.404;8.502;2023-07-09T15:12:16;37.40;99.90
2010;DHT22;1008;47.404;8.502;2023-07-09T15:14:44;37.10;99.90
2010;DHT22;1008;47.404;8.502;2023-07-09T15:17:10;37.10;99.90
2010;DHT22;1008;47.404;8.502;2023-07-09T15:19:42;37.00;99.90
2010;DHT22;1008;47.404;8.502;2023-07-09T15:22:24;37.00;99.90
2010;DHT22;1008;47.404;8.502;2023-07-09T15:24:51;37.20;99.90
2010;DHT22;1008;47.404;8.502;2023-07-09T15:27:18;36.90;99.90
2010;DHT22;1008;47.404;8.502;2023-07-09T15:29:45;36.80;99.90
2010;DHT22;1008;47.404;8.502;2023-07-09T15:32:12;36.90;99.90
2010;DHT22;1008;47.404;8.502;2023-07-09T15:34:38;37.10;99.90
2010;DHT22;1008;47.404;8.502;2023-07-09T15:37:12;37.10;99.90
2010;DHT22;1008;47.404;8.502;2023-07-09T15:39:39;37.00;99.90
2010;DHT22;1008;47.404;8.502;2023-07-09T15:42:10;37.00;99.90
2010;DHT22;1008;47.404;8.502;2023-07-09T15:44:37;37.00;99.90
2010;DHT22;1008;47.404;8.502;2023-07-09T15:47:04;37.20;99.90
2010;DHT22;1008;47.404;8.502;2023-07-09T15:49:32;37.40;99.90
2010;DHT22;1008;47.404;8.502;2023-07-09T15:51:58;37.40;99.90
2010;DHT22;1008;47.404;8.502;2023-07-09T15:54:28;37.40;99.90
2010;DHT22;1008;47.404;8.502;2023-07-09T15:56:54;37.10;99.90
2010;DHT22;1008;47.404;8.502;2023-07-09T15:59:27;36.70;99.90
2010;DHT22;1008;47.404;8.502;2023-07-09T16:01:54;36.40;99.90
2010;DHT22;1008;47.404;8.502;2023-07-09T16:04:21;36.20;99.90
2010;DHT22;1008;47.404;8.502;2023-07-09T16:06:48;36.00;99.90
2010;DHT22;1008;47.404;8.502;2023-07-09T16:09:15;36.20;99.90
2010;DHT22;1008;47.404;8.502;2023-07-09T16:11:45;35.90;99.90
2010;DHT22;1008;47.404;8.502;2023-07-09T16:14:17;36.10;99.90
2010;DHT22;1008;47.404;8.502;2023-07-09T16:16:46;35.90;99.90
2010;DHT22;1008;47.404;8.502;2023-07-09T16:19:17;35.90;99.90
2010;DHT22;1008;47.404;8.502;2023-07-09T16:21:44;35.80;99.90